Time;durP1;ratioP1;P1;durP2;ratioP2;P2;SDS_P1;SDS_P2;PMS_P1;PMS_P2;Temp;Humidity;BMP_temperature;BMP_pressure;BME280_temperature;BME280_humidity;BME280_pressure;Samples;Min_cycle;Max_cycle;Signal;HPM_P1;HPM_P2
2022/07/13 00:00:06;;;;;;;4.07;1.40;;;;;;;;;;1040051;28;20374;-73
2022/07/13 00:00:37;;;;;;;4.35;1.50;;;;;;;;;;1038101;28;20116;-74
2022/07/13 00:01:07;;;;;;;4.47;1.88;;;;;;;;;;1039923;28;20021;-74
2022/07/13 00:01:38;;;;;;;3.15;1.95;;;;;;;;;;1039791;28;20119;-74
2022/07/13 00:02:08;;;;;;;9.48;2.00;;;;;;;;;;1039654;28;20433;-73
2022/07/13 00:02:39;;;;;;;9.23;1.88;;;;;;;;;;1039864;28;20104;-74
2022/07/13 00:03:09;;;;;;;4.93;2.08;;;;;;;;;;1039755;28;20400;-74
2022/07/13 00:03:40;;;;;;;4.10;1.55;;;;;;;;;;1039842;28;20020;-74
2022/07/13 00:04:10;;;;;;;4.32;1.73;;;;;;;;;;1039962;28;20472;-74
2022/07/13 00:04:41;;;;;;;8.98;3.58;;;;;;;;;;1039606;28;20064;-74
2022/07/13 00:05:11;;;;;;;13.30;2.20;;;;;;;;;;1039849;28;20017;-73
2022/07/13 00:05:42;;;;;;;7.10;2.38;;;;;;;;;;1040229;28;20155;-73
2022/07/13 00:06:12;;;;;;;7.78;1.20;;;;;;;;;;1039827;28;20017;-73
2022/07/13 00:06:43;;;;;;;3.25;1.48;;;;;;;;;;1040181;28;20431;-74
2022/07/13 00:07:13;;;;;;;4.63;1.77;;;;;;;;;;1039518;28;20025;-74
2022/07/13 00:07:44;;;;;;;5.75;1.75;;;;;;;;;;1039900;28;20124;-74
2022/07/13 00:08:14;;;;;;;4.28;1.95;;;;;;;;;;1039679;28;20456;-74
2022/07/13 00:08:45;;;;;;;7.22;1.77;;;;;;;;;;1038987;28;20085;-74
2022/07/13 00:09:15;;;;;;;11.82;1.88;;;;;;;;;;1039210;28;20053;-73
2022/07/13 00:09:46;;;;;;;11.02;2.00;;;;;;;;;;1039854;28;20025;-74
2022/07/13 00:10:16;;;;;;;6.22;1.95;;;;;;;;;;1038742;28;20030;-74
2022/07/13 00:10:47;;;;;;;12.25;2.10;;;;;;;;;;1038221;28;20025;-74
2022/07/13 00:11:17;;;;;;;5.90;2.20;;;;;;;;;;1039472;28;20029;-74
2022/07/13 00:11:48;;;;;;;10.00;2.78;;;;;;;;;;1039854;28;20021;-74
2022/07/13 00:12:18;;;;;;;8.65;2.25;;;;;;;;;;1039602;28;20428;-74
2022/07/13 00:12:49;;;;;;;5.80;2.28;;;;;;;;;;1040154;28;20025;-73
2022/07/13 00:13:19;;;;;;;6.38;2.22;;;;;;;;;;1039933;28;20120;-73
2022/07/13 00:13:50;;;;;;;10.20;2.65;;;;;;;;;;1038176;28;20025;-74
2022/07/13 00:14:20;;;;;;;5.47;1.92;;;;;;;;;;1039542;28;20079;-74
2022/07/13 00:14:51;;;;;;;3.75;1.33;;;;;;;;;;1039836;28;20024;-74
2022/07/13 00:15:21;;;;;;;26.40;2.40;;;;;;;;;;1039639;28;20026;-74
2022/07/13 00:15:52;;;;;;;4.30;1.55;;;;;;;;;;1039241;28;20037;-73
2022/07/13 00:16:23;;;;;;;12.98;2.65;;;;;;;;;;1039112;28;20064;-73
2022/07/13 00:16:53;;;;;;;12.05;2.25;;;;;;;;;;1040143;28;20406;-73
2022/07/13 00:17:24;;;;;;;15.80;1.75;;;;;;;;;;1039939;28;20083;-74
2022/07/13 00:17:54;;;;;;;4.15;1.48;;;;;;;;;;1039991;28;20028;-73
2022/07/13 00:18:25;;;;;;;3.42;1.73;;;;;;;;;;1039685;28;20021;-74
2022/07/13 00:18:55;;;;;;;4.78;2.40;;;;;;;;;;1039231;28;20029;-74
2022/07/13 00:19:26;;;;;;;4.97;1.50;;;;;;;;;;1039044;28;20029;-74
2022/07/13 00:19:56;;;;;;;14.32;3.05;;;;;;;;;;1039782;28;20021;-73
2022/07/13 00:20:27;;;;;;;15.73;2.78;;;;;;;;;;1039983;28;20021;-74
2022/07/13 00:20:58;;;;;;;10.00;2.45;;;;;;;;;;1039950;28;20026;-73
2022/07/13 00:21:28;;;;;;;9.73;1.80;;;;;;;;;;1040062;28;20048;-73
2022/07/13 00:21:59;;;;;;;12.57;2.45;;;;;;;;;;1039103;28;20025;-73
2022/07/13 00:22:29;;;;;;;9.20;2.55;;;;;;;;;;1039640;28;20434;-73
2022/07/13 00:23:00;;;;;;;13.00;2.58;;;;;;;;;;1039718;28;20116;-73
2022/07/13 00:23:30;;;;;;;10.85;2.80;;;;;;;;;;1039632;28;20087;-73
2022/07/13 00:24:01;;;;;;;16.48;3.08;;;;;;;;;;1039718;28;20450;-73
2022/07/13 00:24:31;;;;;;;6.57;2.50;;;;;;;;;;1040067;28;20025;-73
2022/07/13 00:25:02;;;;;;;19.13;2.97;;;;;;;;;;1039950;28;20622;-73
2022/07/13 00:25:32;;;;;;;9.48;2.20;;;;;;;;;;1040002;28;20109;-73
2022/07/13 00:26:03;;;;;;;16.00;2.50;;;;;;;;;;1040047;28;20424;-73
2022/07/13 00:26:33;;;;;;;14.18;2.42;;;;;;;;;;1039946;28;20040;-73
2022/07/13 00:27:04;;;;;;;5.47;1.95;;;;;;;;;;1040001;28;20025;-73
2022/07/13 00:27:34;;;;;;;10.57;2.15;;;;;;;;;;1037886;28;20547;-73
2022/07/13 00:28:05;;;;;;;5.13;2.28;;;;;;;;;;1039896;28;20056;-73
2022/07/13 00:28:36;;;;;;;7.40;2.08;;;;;;;;;;1039603;28;20079;-73
2022/07/13 00:29:07;;;;;;;17.17;3.10;;;;;;;;;;1039912;28;20025;-73
2022/07/13 00:29:37;;;;;;;10.57;3.17;;;;;;;;;;1040032;28;20036;-73
2022/07/13 00:30:08;;;;;;;7.13;2.70;;;;;;;;;;1039951;28;20493;-73
2022/07/13 00:30:39;;;;;;;19.38;2.80;;;;;;;;;;1040100;28;20037;-73
2022/07/13 00:31:09;;;;;;;20.60;2.70;;;;;;;;;;1039795;28;20029;-73
2022/07/13 00:31:41;;;;;;;6.38;2.42;;;;;;;;;;1040013;28;20025;-73
2022/07/13 00:32:11;;;;;;;7.80;2.50;;;;;;;;;;1039931;28;20083;-73
2022/07/13 00:32:42;;;;;;;12.60;2.83;;;;;;;;;;1038594;28;20021;-73
2022/07/13 00:33:12;;;;;;;6.70;2.90;;;;;;;;;;1035341;28;20450;-73
2022/07/13 00:33:43;;;;;;;5.78;3.22;;;;;;;;;;1031595;28;20107;-73
2022/07/13 00:34:13;;;;;;;11.70;2.47;;;;;;;;;;1031402;28;20394;-73
2022/07/13 00:34:44;;;;;;;9.25;2.78;;;;;;;;;;1035262;28;20014;-73
2022/07/13 00:35:14;;;;;;;9.55;2.85;;;;;;;;;;1039525;28;20516;-73
2022/07/13 00:35:45;;;;;;;7.07;2.55;;;;;;;;;;1039726;28;20625;-73
2022/07/13 00:36:15;;;;;;;8.18;2.08;;;;;;;;;;1039379;28;20025;-73
2022/07/13 00:36:46;;;;;;;8.52;3.42;;;;;;;;;;1039713;28;20029;-73
2022/07/13 00:37:16;;;;;;;23.45;3.00;;;;;;;;;;1039496;28;20554;-73
2022/07/13 00:37:47;;;;;;;13.68;2.97;;;;;;;;;;1035573;28;20053;-73
2022/07/13 00:38:17;;;;;;;9.65;2.85;;;;;;;;;;1031361;28;20030;-73
2022/07/13 00:38:48;;;;;;;13.48;2.55;;;;;;;;;;1035598;28;20053;-73
2022/07/13 00:39:18;;;;;;;9.32;2.88;;;;;;;;;;1035122;28;20084;-73
2022/07/13 00:39:49;;;;;;;15.02;2.85;;;;;;;;;;1037837;28;20021;-73
2022/07/13 00:40:19;;;;;;;11.50;4.53;;;;;;;;;;1038762;28;20025;-73
2022/07/13 00:40:50;;;;;;;9.32;2.38;;;;;;;;;;1040009;28;20032;-73
2022/07/13 00:41:20;;;;;;;9.25;2.78;;;;;;;;;;1039809;28;20078;-73
2022/07/13 00:41:51;;;;;;;10.60;3.25;;;;;;;;;;1039577;28;20025;-73
2022/07/13 00:42:21;;;;;;;11.27;2.95;;;;;;;;;;1039537;28;20475;-73
2022/07/13 00:42:52;;;;;;;7.63;3.38;;;;;;;;;;1035646;28;20022;-73
2022/07/13 00:43:22;;;;;;;9.60;3.15;;;;;;;;;;1035469;28;20033;-73
2022/07/13 00:43:53;;;;;;;12.23;2.75;;;;;;;;;;1038646;28;20033;-73
2022/07/13 00:44:23;;;;;;;10.25;2.72;;;;;;;;;;1039688;28;20027;-73
2022/07/13 00:44:54;;;;;;;15.93;2.58;;;;;;;;;;1039208;28;20025;-73
2022/07/13 00:45:24;;;;;;;6.13;2.90;;;;;;;;;;1033668;28;20062;-73
2022/07/13 00:45:55;;;;;;;10.57;2.17;;;;;;;;;;1031409;28;20022;-73
2022/07/13 00:46:25;;;;;;;11.65;2.13;;;;;;;;;;1031500;28;20465;-73
2022/07/13 00:46:56;;;;;;;11.38;2.78;;;;;;;;;;1035640;28;20022;-73
2022/07/13 00:47:30;;;;;;;6.75;2.15;;;;;;;;;;1039584;28;20025;-73
2022/07/13 00:48:01;;;;;;;9.45;2.50;;;;;;;;;;1038167;28;20025;-73
2022/07/13 00:48:32;;;;;;;7.18;2.35;;;;;;;;;;1039959;28;20033;-73
2022/07/13 00:49:04;;;;;;;8.02;2.58;;;;;;;;;;1039535;28;20029;-73
2022/07/13 00:49:35;;;;;;;15.77;2.58;;;;;;;;;;1039952;28;20026;-73
2022/07/13 00:50:06;;;;;;;8.70;2.35;;;;;;;;;;1039919;28;20021;-73
2022/07/13 00:50:37;;;;;;;16.08;2.58;;;;;;;;;;1039588;28;20032;-73
2022/07/13 00:51:08;;;;;;;6.80;2.03;;;;;;;;;;1039467;28;20550;-73
2022/07/13 00:51:39;;;;;;;11.70;2.45;;;;;;;;;;1038447;28;20060;-73
2022/07/13 00:52:10;;;;;;;9.73;2.17;;;;;;;;;;1037464;28;20119;-73
2022/07/13 00:52:41;;;;;;;13.32;3.13;;;;;;;;;;1038252;28;20032;-73
2022/07/13 00:53:11;;;;;;;4.40;1.77;;;;;;;;;;1039447;28;20028;-73
2022/07/13 00:53:42;;;;;;;8.13;1.90;;;;;;;;;;1039383;28;20108;-73
2022/07/13 00:54:12;;;;;;;9.32;2.22;;;;;;;;;;1039236;28;20060;-73
2022/07/13 00:54:43;;;;;;;5.57;2.05;;;;;;;;;;1039963;28;20033;-73
2022/07/13 00:55:14;;;;;;;10.07;2.00;;;;;;;;;;1039418;28;20117;-73
2022/07/13 00:55:48;;;;;;;3.58;1.85;;;;;;;;;;1038537;28;20499;-73
2022/07/13 00:56:19;;;;;;;15.07;3.00;;;;;;;;;;1039381;28;20100;-73
2022/07/13 00:56:49;;;;;;;8.98;2.22;;;;;;;;;;1039627;28;20682;-73
2022/07/13 00:57:20;;;;;;;12.93;1.98;;;;;;;;;;1035281;28;20038;-73
2022/07/13 00:57:51;;;;;;;8.85;3.30;;;;;;;;;;1034505;28;20022;-73
2022/07/13 00:58:22;;;;;;;8.48;2.92;;;;;;;;;;1035590;28;20029;-73
2022/07/13 00:58:52;;;;;;;7.70;2.60;;;;;;;;;;1039216;28;20023;-73
2022/07/13 00:59:24;;;;;;;9.38;3.92;;;;;;;;;;1039716;28;20036;-73
2022/07/13 00:59:57;;;;;;;5.55;2.13;;;;;;;;;;1039871;28;20025;-73
2022/07/13 01:00:28;;;;;;;7.22;1.77;;;;;;;;;;1039877;28;20031;-73
2022/07/13 01:00:59;;;;;;;3.60;1.75;;;;;;;;;;1039785;28;20714;-73
2022/07/13 01:01:29;;;;;;;11.45;2.00;;;;;;;;;;1039900;28;20021;-73
2022/07/13 01:02:00;;;;;;;3.15;1.38;;;;;;;;;;1039866;28;20120;-73
2022/07/13 01:02:30;;;;;;;8.55;2.25;;;;;;;;;;1039844;28;20416;-73
2022/07/13 01:03:01;;;;;;;7.78;2.13;;;;;;;;;;1039955;28;20492;-73
2022/07/13 01:03:31;;;;;;;10.90;2.17;;;;;;;;;;1039803;28;20025;-73
2022/07/13 01:04:02;;;;;;;6.57;2.40;;;;;;;;;;1039422;28;20028;-74
2022/07/13 01:04:33;;;;;;;5.97;1.80;;;;;;;;;;1038937;28;20445;-74
2022/07/13 01:05:03;;;;;;;7.70;2.70;;;;;;;;;;1039493;28;20189;-73
2022/07/13 01:05:34;;;;;;;5.13;1.90;;;;;;;;;;1039615;28;20036;-73
2022/07/13 01:06:07;;;;;;;13.95;2.30;;;;;;;;;;1039513;28;20022;-74
2022/07/13 01:06:38;;;;;;;10.55;2.65;;;;;;;;;;1037866;28;20029;-74
2022/07/13 01:07:08;;;;;;;13.93;2.30;;;;;;;;;;1039422;28;20103;-74
2022/07/13 01:07:39;;;;;;;19.92;3.42;;;;;;;;;;1034091;28;20030;-74
2022/07/13 01:08:10;;;;;;;18.60;2.10;;;;;;;;;;1035433;28;20029;-74
2022/07/13 01:08:41;;;;;;;13.23;2.30;;;;;;;;;;1037487;28;20461;-73
2022/07/13 01:09:11;;;;;;;19.67;3.10;;;;;;;;;;1035359;28;20030;-73
2022/07/13 01:09:42;;;;;;;8.57;2.97;;;;;;;;;;1035408;28;20037;-73
2022/07/13 01:10:12;;;;;;;7.22;2.75;;;;;;;;;;1035315;28;20024;-73
2022/07/13 01:10:43;;;;;;;6.60;2.03;;;;;;;;;;1035716;28;20466;-73
2022/07/13 01:11:14;;;;;;;9.63;4.68;;;;;;;;;;1038465;28;20033;-73
2022/07/13 01:11:45;;;;;;;22.13;2.60;;;;;;;;;;1038411;28;20075;-73
2022/07/13 01:12:16;;;;;;;7.60;1.90;;;;;;;;;;1039341;28;20029;-73
2022/07/13 01:12:46;;;;;;;9.98;2.22;;;;;;;;;;1035284;28;20108;-73
2022/07/13 01:13:17;;;;;;;17.92;2.15;;;;;;;;;;1033298;28;20058;-73
2022/07/13 01:13:48;;;;;;;17.63;2.53;;;;;;;;;;1038303;28;20121;-73
2022/07/13 01:14:18;;;;;;;9.82;1.95;;;;;;;;;;1037784;28;20029;-73
2022/07/13 01:14:49;;;;;;;13.57;1.95;;;;;;;;;;1036683;28;20564;-74
2022/07/13 01:15:21;;;;;;;2.42;1.40;;;;;;;;;;1032333;28;20117;-74
2022/07/13 01:15:51;;;;;;;7.75;1.88;;;;;;;;;;1031182;28;20019;-73
2022/07/13 01:16:22;;;;;;;13.88;2.05;;;;;;;;;;1034016;28;20513;-74
2022/07/13 01:16:53;;;;;;;17.50;1.90;;;;;;;;;;1038272;28;20504;-73
2022/07/13 01:17:24;;;;;;;11.80;2.47;;;;;;;;;;1037811;28;20025;-73
2022/07/13 01:17:55;;;;;;;4.32;1.73;;;;;;;;;;1037348;28;20021;-74
2022/07/13 01:18:25;;;;;;;9.20;2.03;;;;;;;;;;1039373;28;20028;-74
2022/07/13 01:18:57;;;;;;;3.80;1.55;;;;;;;;;;1035479;28;20477;-74
2022/07/13 01:19:27;;;;;;;7.72;2.17;;;;;;;;;;1038963;28;20049;-73
2022/07/13 01:19:58;;;;;;;9.85;1.60;;;;;;;;;;1038852;28;20028;-73
2022/07/13 01:20:29;;;;;;;8.90;1.60;;;;;;;;;;1039312;28;20029;-74
2022/07/13 01:21:00;;;;;;;8.73;1.60;;;;;;;;;;1035089;28;20022;-74
2022/07/13 01:21:33;;;;;;;3.33;1.45;;;;;;;;;;1035179;28;20524;-74
2022/07/13 01:22:04;;;;;;;5.18;1.75;;;;;;;;;;1033657;28;20572;-73
2022/07/13 01:22:45;;;;;;;12.35;2.33;;;;;;;;;;1035613;28;20018;-75
2022/07/13 01:23:16;;;;;;;5.57;1.33;;;;;;;;;;1038616;28;20021;-74
2022/07/13 01:23:47;;;;;;;3.97;1.20;;;;;;;;;;1037676;28;20033;-74
2022/07/13 01:24:18;;;;;;;22.98;2.83;;;;;;;;;;1007074;28;20072;-73
2022/07/13 01:24:49;;;;;;;6.65;1.52;;;;;;;;;;1039439;28;20031;-73
2022/07/13 01:25:20;;;;;;;7.38;1.88;;;;;;;;;;1035066;28;20568;-74
2022/07/13 01:25:50;;;;;;;2.17;1.45;;;;;;;;;;1035177;28;20057;-74
2022/07/13 01:26:21;;;;;;;4.85;1.63;;;;;;;;;;1037698;28;20029;-74
2022/07/13 01:26:52;;;;;;;9.70;1.85;;;;;;;;;;1039260;28;20081;-73
2022/07/13 01:27:22;;;;;;;3.60;1.38;;;;;;;;;;1039555;28;20536;-73
2022/07/13 01:27:53;;;;;;;10.30;2.60;;;;;;;;;;1039573;28;20055;-73
2022/07/13 01:28:24;;;;;;;6.68;1.65;;;;;;;;;;1039623;28;20473;-74
2022/07/13 01:28:54;;;;;;;9.48;2.20;;;;;;;;;;1038952;28;20022;-74
2022/07/13 01:29:24;;;;;;;5.38;1.52;;;;;;;;;;1038541;28;20013;-74
2022/07/13 01:29:55;;;;;;;3.30;1.95;;;;;;;;;;1039529;28;20025;-74
2022/07/13 01:30:25;;;;;;;5.93;2.35;;;;;;;;;;1039277;28;20018;-74
2022/07/13 01:30:56;;;;;;;7.28;1.73;;;;;;;;;;1039387;28;20040;-74
2022/07/13 01:31:34;;;;;;;7.28;2.15;;;;;;;;;;1039478;28;20105;-74
2022/07/13 01:32:04;;;;;;;17.83;2.17;;;;;;;;;;1038386;28;20389;-74
2022/07/13 01:32:45;;;;;;;3.33;1.55;;;;;;;;;;1039726;28;20053;-74
2022/07/13 01:33:16;;;;;;;7.95;1.67;;;;;;;;;;1038885;28;20021;-74
2022/07/13 01:33:46;;;;;;;13.60;2.05;;;;;;;;;;1039415;28;20018;-73
2022/07/13 01:34:18;;;;;;;4.35;1.55;;;;;;;;;;1034912;28;20036;-74
2022/07/13 01:34:48;;;;;;;5.35;1.50;;;;;;;;;;1034669;28;20057;-74
2022/07/13 01:35:22;;;;;;;6.22;2.38;;;;;;;;;;1039035;28;20035;-74
2022/07/13 01:35:55;;;;;;;6.47;1.20;;;;;;;;;;1039256;28;20034;-74
2022/07/13 01:36:26;;;;;;;15.13;1.85;;;;;;;;;;1039273;28;20513;-74
2022/07/13 01:36:56;;;;;;;7.35;2.63;;;;;;;;;;1039204;28;20025;-74
2022/07/13 01:37:27;;;;;;;5.10;1.48;;;;;;;;;;1039242;28;20037;-74
2022/07/13 01:37:58;;;;;;;3.58;1.40;;;;;;;;;;1039158;28;20025;-74
2022/07/13 01:38:29;;;;;;;6.40;1.30;;;;;;;;;;1039499;28;20025;-73
2022/07/13 01:38:59;;;;;;;2.88;1.38;;;;;;;;;;1039340;28;20151;-74
2022/07/13 01:39:30;;;;;;;2.50;1.30;;;;;;;;;;1037714;28;20078;-74
2022/07/13 01:40:00;;;;;;;3.72;1.15;;;;;;;;;;1039316;28;20048;-74
2022/07/13 01:40:31;;;;;;;5.65;1.60;;;;;;;;;;1039230;28;20025;-74
2022/07/13 01:41:02;;;;;;;3.78;1.73;;;;;;;;;;1039623;28;20026;-74
2022/07/13 01:41:33;;;;;;;7.85;1.95;;;;;;;;;;1039152;28;20484;-74
2022/07/13 01:42:03;;;;;;;2.60;1.00;;;;;;;;;;1036312;28;20036;-74
2022/07/13 01:42:40;;;;;;;6.45;1.40;;;;;;;;;;1032355;28;20041;-74
2022/07/13 01:43:12;;;;;;;6.72;1.42;;;;;;;;;;1031456;28;20025;-74
2022/07/13 01:43:43;;;;;;;3.10;1.52;;;;;;;;;;1034895;28;20029;-74
2022/07/13 01:44:14;;;;;;;5.40;1.45;;;;;;;;;;1034862;28;20071;-73
2022/07/13 01:44:45;;;;;;;3.67;1.52;;;;;;;;;;1039028;28;20079;-73
2022/07/13 01:45:16;;;;;;;9.38;1.65;;;;;;;;;;1033878;28;20040;-74
2022/07/13 01:45:47;;;;;;;8.48;1.27;;;;;;;;;;1035109;28;20025;-74
2022/07/13 01:46:17;;;;;;;3.75;1.95;;;;;;;;;;1036218;28;20120;-74
2022/07/13 01:46:48;;;;;;;3.45;1.20;;;;;;;;;;1038551;28;20400;-74
2022/07/13 01:47:19;;;;;;;5.30;1.33;;;;;;;;;;1035914;28;20136;-74
2022/07/13 01:47:50;;;;;;;3.97;1.23;;;;;;;;;;1039131;28;20029;-74
2022/07/13 01:48:21;;;;;;;3.10;1.30;;;;;;;;;;1036038;28;20037;-74
2022/07/13 01:48:54;;;;;;;5.85;1.20;;;;;;;;;;1039212;28;20416;-74
2022/07/13 01:49:24;;;;;;;3.10;1.40;;;;;;;;;;1030366;28;20027;-74
2022/07/13 01:49:55;;;;;;;3.72;1.02;;;;;;;;;;1034041;28;20087;-74
2022/07/13 01:50:27;;;;;;;7.53;1.70;;;;;;;;;;1036955;28;20030;-74
2022/07/13 01:50:57;;;;;;;10.85;2.05;;;;;;;;;;1035339;28;20576;-74
2022/07/13 01:51:28;;;;;;;9.95;3.78;;;;;;;;;;1036280;28;20026;-74
2022/07/13 01:51:58;;;;;;;13.93;3.83;;;;;;;;;;1032446;28;21345;-74
2022/07/13 01:52:29;;;;;;;15.15;6.32;;;;;;;;;;1031143;28;20077;-74
2022/07/13 01:52:59;;;;;;;17.77;6.78;;;;;;;;;;1035100;28;20092;-74
2022/07/13 01:53:30;;;;;;;15.10;7.95;;;;;;;;;;1037940;28;20101;-74
2022/07/13 01:54:00;;;;;;;12.60;5.05;;;;;;;;;;1039173;28;20021;-74
2022/07/13 01:54:31;;;;;;;10.95;5.43;;;;;;;;;;1035643;28;20428;-74
2022/07/13 01:55:05;;;;;;;13.80;6.68;;;;;;;;;;1038592;28;20079;-74
2022/07/13 01:55:35;;;;;;;18.15;8.75;;;;;;;;;;1035700;28;20483;-74
2022/07/13 01:56:06;;;;;;;24.95;10.48;;;;;;;;;;1036870;28;20053;-75
2022/07/13 01:56:36;;;;;;;26.42;11.18;;;;;;;;;;1038208;28;20120;-75
2022/07/13 01:57:07;;;;;;;26.95;12.25;;;;;;;;;;1031863;28;20022;-75
2022/07/13 01:57:38;;;;;;;19.45;9.80;;;;;;;;;;1032415;28;20081;-75
2022/07/13 01:58:08;;;;;;;19.73;8.43;;;;;;;;;;1031030;28;20152;-75
2022/07/13 01:58:39;;;;;;;21.20;9.68;;;;;;;;;;1037208;28;20029;-75
2022/07/13 01:59:09;;;;;;;18.27;6.97;;;;;;;;;;1037087;28;20438;-75
2022/07/13 01:59:40;;;;;;;19.27;7.03;;;;;;;;;;1036287;28;20022;-75
2022/07/13 02:00:13;;;;;;;22.00;5.50;;;;;;;;;;1036926;28;20038;-75
2022/07/13 02:00:43;;;;;;;12.60;5.68;;;;;;;;;;1036834;28;20116;-75
2022/07/13 02:01:14;;;;;;;17.75;4.70;;;;;;;;;;1036228;28;20025;-75
2022/07/13 02:01:44;;;;;;;19.42;4.63;;;;;;;;;;1031993;28;20036;-75
2022/07/13 02:02:15;;;;;;;12.07;4.53;;;;;;;;;;1036154;28;20027;-75
2022/07/13 02:02:46;;;;;;;10.43;3.55;;;;;;;;;;1038743;28;20029;-75
2022/07/13 02:03:16;;;;;;;8.70;3.35;;;;;;;;;;1034530;28;20478;-75
2022/07/13 02:03:46;;;;;;;6.82;3.45;;;;;;;;;;1036105;28;20469;-75
2022/07/13 02:04:17;;;;;;;14.55;4.10;;;;;;;;;;1033029;28;20026;-75
2022/07/13 02:04:47;;;;;;;16.80;3.20;;;;;;;;;;1037753;28;20068;-75
2022/07/13 02:05:18;;;;;;;15.55;4.30;;;;;;;;;;1035701;28;20084;-75
2022/07/13 02:05:49;;;;;;;15.82;4.35;;;;;;;;;;1038979;28;20021;-75
2022/07/13 02:06:19;;;;;;;11.57;3.85;;;;;;;;;;1034142;28;20777;-75
2022/07/13 02:06:50;;;;;;;11.77;3.08;;;;;;;;;;1037253;28;20132;-75
2022/07/13 02:07:21;;;;;;;11.77;4.18;;;;;;;;;;1035192;28;20096;-75
2022/07/13 02:07:52;;;;;;;7.70;2.80;;;;;;;;;;1037557;28;20025;-75
2022/07/13 02:08:23;;;;;;;12.15;3.03;;;;;;;;;;1034666;28;20028;-75
2022/07/13 02:08:53;;;;;;;12.23;3.85;;;;;;;;;;1034401;28;20397;-75
2022/07/13 02:09:24;;;;;;;11.52;3.45;;;;;;;;;;1034624;28;20116;-75
2022/07/13 02:09:54;;;;;;;10.23;3.22;;;;;;;;;;1039199;28;20496;-75
2022/07/13 02:10:37;;;;;;;8.45;3.00;;;;;;;;;;1037685;28;20029;-75
2022/07/13 02:11:07;;;;;;;9.05;2.53;;;;;;;;;;1038021;28;20120;-76
2022/07/13 02:11:38;;;;;;;12.35;2.72;;;;;;;;;;1038187;28;20025;-76
2022/07/13 02:12:08;;;;;;;14.43;3.60;;;;;;;;;;1039369;28;20029;-75
2022/07/13 02:12:39;;;;;;;9.68;3.42;;;;;;;;;;1038674;28;20428;-75
2022/07/13 02:13:13;;;;;;;12.15;3.25;;;;;;;;;;1037174;28;20014;-76
2022/07/13 02:13:45;;;;;;;13.75;3.17;;;;;;;;;;1039257;28;20115;-75
2022/07/13 02:14:15;;;;;;;9.93;2.47;;;;;;;;;;1035682;28;20064;-75
2022/07/13 02:14:46;;;;;;;8.73;3.50;;;;;;;;;;1038474;28;20120;-75
2022/07/13 02:15:16;;;;;;;9.55;2.65;;;;;;;;;;1035628;28;20045;-75
2022/07/13 02:15:47;;;;;;;6.78;2.63;;;;;;;;;;1038883;28;20071;-75
2022/07/13 02:16:18;;;;;;;7.85;2.33;;;;;;;;;;1034619;28;20477;-75
2022/07/13 02:16:48;;;;;;;5.63;2.00;;;;;;;;;;1036903;28;20030;-75
2022/07/13 02:17:19;;;;;;;10.98;2.42;;;;;;;;;;1038457;28;20042;-75
2022/07/13 02:17:49;;;;;;;4.45;1.85;;;;;;;;;;1036928;28;20804;-75
2022/07/13 02:18:20;;;;;;;5.88;2.38;;;;;;;;;;1038712;28;20018;-76
2022/07/13 02:18:51;;;;;;;7.25;2.28;;;;;;;;;;1039275;28;20049;-76
2022/07/13 02:19:22;;;;;;;6.95;1.73;;;;;;;;;;1034040;28;20371;-75
2022/07/13 02:19:52;;;;;;;6.30;1.77;;;;;;;;;;1035151;28;20466;-75
2022/07/13 02:20:23;;;;;;;5.78;1.77;;;;;;;;;;1035179;28;20026;-75
2022/07/13 02:20:53;;;;;;;3.65;1.27;;;;;;;;;;1036303;28;20432;-75
2022/07/13 02:21:24;;;;;;;3.03;1.42;;;;;;;;;;1038056;28;20025;-75
2022/07/13 02:21:55;;;;;;;4.72;1.50;;;;;;;;;;1037140;28;20030;-75
2022/07/13 02:22:25;;;;;;;6.85;1.15;;;;;;;;;;1036097;28;20042;-75
2022/07/13 02:22:56;;;;;;;3.55;1.40;;;;;;;;;;1035812;28;20439;-75
2022/07/13 02:23:26;;;;;;;4.85;1.50;;;;;;;;;;1036995;28;20021;-75
2022/07/13 02:23:57;;;;;;;7.78;1.38;;;;;;;;;;1037613;28;20060;-75
2022/07/13 02:24:27;;;;;;;7.15;1.92;;;;;;;;;;1034823;28;20026;-75
2022/07/13 02:24:59;;;;;;;3.88;1.58;;;;;;;;;;1041142;28;20025;-75
2022/07/13 02:25:31;;;;;;;4.95;1.67;;;;;;;;;;1037870;28;20024;-75
2022/07/13 02:26:02;;;;;;;13.45;3.03;;;;;;;;;;1038833;28;20036;-75
2022/07/13 02:26:32;;;;;;;8.23;1.20;;;;;;;;;;1037111;28;20072;-75
2022/07/13 02:27:03;;;;;;;2.55;1.33;;;;;;;;;;1035638;28;20496;-75
2022/07/13 02:27:33;;;;;;;5.65;2.90;;;;;;;;;;1037557;28;20075;-75
2022/07/13 02:28:07;;;;;;;3.58;1.77;;;;;;;;;;1034526;28;20249;-76
2022/07/13 02:28:37;;;;;;;3.00;1.20;;;;;;;;;;1032001;28;20036;-76
2022/07/13 02:29:08;;;;;;;6.05;1.48;;;;;;;;;;1031022;28;20498;-76
2022/07/13 02:29:38;;;;;;;5.43;1.20;;;;;;;;;;1035933;28;20320;-76
2022/07/13 02:30:10;;;;;;;4.88;1.52;;;;;;;;;;1037914;28;20017;-76
2022/07/13 02:30:40;;;;;;;4.40;1.63;;;;;;;;;;1037314;28;20049;-75
2022/07/13 02:31:11;;;;;;;3.10;1.30;;;;;;;;;;1037369;28;20024;-75
2022/07/13 02:31:41;;;;;;;8.98;1.30;;;;;;;;;;1035258;28;20014;-75
2022/07/13 02:32:12;;;;;;;6.07;2.35;;;;;;;;;;1038473;28;20017;-75
2022/07/13 02:32:43;;;;;;;8.45;1.83;;;;;;;;;;1034614;28;20021;-75
2022/07/13 02:33:14;;;;;;;5.68;1.85;;;;;;;;;;1029784;28;20030;-76
2022/07/13 02:33:44;;;;;;;5.50;1.55;;;;;;;;;;1034127;28;20024;-75
2022/07/13 02:34:15;;;;;;;12.07;1.88;;;;;;;;;;1032252;28;20108;-75
2022/07/13 02:34:45;;;;;;;9.15;1.42;;;;;;;;;;1038306;28;20123;-75
2022/07/13 02:35:16;;;;;;;5.80;1.25;;;;;;;;;;1036649;28;20089;-75
2022/07/13 02:35:46;;;;;;;3.25;1.33;;;;;;;;;;1038933;28;20039;-76
2022/07/13 02:36:17;;;;;;;5.72;1.40;;;;;;;;;;1036947;28;20033;-76
2022/07/13 02:36:47;;;;;;;17.90;1.88;;;;;;;;;;1038063;28;20087;-75
2022/07/13 02:37:18;;;;;;;2.97;1.45;;;;;;;;;;1037756;28;20033;-75
2022/07/13 02:37:48;;;;;;;4.82;1.38;;;;;;;;;;1037743;28;20052;-75
2022/07/13 02:38:19;;;;;;;7.72;1.63;;;;;;;;;;1036307;28;20091;-76
2022/07/13 02:38:50;;;;;;;5.30;2.55;;;;;;;;;;1036582;28;20508;-76
2022/07/13 02:39:20;;;;;;;5.45;1.45;;;;;;;;;;1038090;28;20041;-76
2022/07/13 02:39:53;;;;;;;2.33;1.05;;;;;;;;;;1038203;28;20022;-75
2022/07/13 02:40:23;;;;;;;1.73;0.88;;;;;;;;;;1037980;28;20106;-75
2022/07/13 02:40:54;;;;;;;9.30;1.23;;;;;;;;;;1039683;28;20033;-76
2022/07/13 02:41:24;;;;;;;1.70;0.90;;;;;;;;;;1037022;28;20409;-75
2022/07/13 02:41:55;;;;;;;4.85;1.42;;;;;;;;;;1037754;28;20078;-75
2022/07/13 02:42:26;;;;;;;1.83;0.90;;;;;;;;;;1036872;28;20021;-75
2022/07/13 02:42:56;;;;;;;6.07;1.30;;;;;;;;;;1039026;28;20032;-76
2022/07/13 02:43:27;;;;;;;2.60;1.25;;;;;;;;;;1036250;28;20022;-76
2022/07/13 02:43:58;;;;;;;2.72;1.15;;;;;;;;;;1037880;28;20154;-76
2022/07/13 02:44:29;;;;;;;5.80;1.35;;;;;;;;;;1040056;28;20025;-76
2022/07/13 02:45:00;;;;;;;4.43;1.20;;;;;;;;;;1040044;28;20063;-75
2022/07/13 02:45:30;;;;;;;2.85;1.30;;;;;;;;;;1038831;28;20537;-76
2022/07/13 02:46:01;;;;;;;5.57;1.58;;;;;;;;;;1033084;28;20026;-75
2022/07/13 02:46:31;;;;;;;2.45;0.95;;;;;;;;;;1033285;28;20026;-75
2022/07/13 02:47:02;;;;;;;6.88;1.30;;;;;;;;;;1027741;28;20031;-72
2022/07/13 02:47:33;;;;;;;1.75;1.25;;;;;;;;;;1033310;28;20026;-76
2022/07/13 02:48:03;;;;;;;2.65;0.80;;;;;;;;;;1035749;28;20032;-76
2022/07/13 02:48:34;;;;;;;3.78;1.65;;;;;;;;;;1030438;28;20025;-77
2022/07/13 02:49:04;;;;;;;4.68;0.98;;;;;;;;;;1037850;28;20017;-76
2022/07/13 02:49:35;;;;;;;9.75;1.48;;;;;;;;;;1034378;28;20058;-75
2022/07/13 02:50:05;;;;;;;13.23;1.83;;;;;;;;;;1036954;28;20034;-75
2022/07/13 02:50:36;;;;;;;6.00;1.23;;;;;;;;;;1037537;28;20025;-73
2022/07/13 02:51:07;;;;;;;4.95;1.65;;;;;;;;;;1034819;28;20505;-76
2022/07/13 02:51:37;;;;;;;1.88;1.02;;;;;;;;;;1032107;28;20105;-76
2022/07/13 02:52:08;;;;;;;7.53;1.88;;;;;;;;;;1033110;28;20053;-75
2022/07/13 02:52:38;;;;;;;11.65;2.35;;;;;;;;;;1033523;28;20113;-75
2022/07/13 02:53:09;;;;;;;5.13;1.80;;;;;;;;;;1031457;28;20181;-76
2022/07/13 02:53:39;;;;;;;11.20;1.63;;;;;;;;;;1032698;28;20086;-76
2022/07/13 02:54:10;;;;;;;5.25;2.13;;;;;;;;;;1033981;28;20044;-75
2022/07/13 02:54:40;;;;;;;3.30;1.63;;;;;;;;;;1036706;28;20024;-75
2022/07/13 02:55:11;;;;;;;14.35;1.90;;;;;;;;;;1035886;28;20033;-76
2022/07/13 02:55:41;;;;;;;2.70;0.93;;;;;;;;;;1033501;28;20022;-76
2022/07/13 02:56:12;;;;;;;13.38;2.00;;;;;;;;;;1036364;28;20018;-75
2022/07/13 02:56:42;;;;;;;4.88;1.27;;;;;;;;;;1037430;28;20539;-75
2022/07/13 02:57:12;;;;;;;6.78;2.15;;;;;;;;;;1038216;28;20099;-76
2022/07/13 02:57:43;;;;;;;6.70;1.75;;;;;;;;;;1035000;28;20025;-76
2022/07/13 02:58:13;;;;;;;5.05;1.25;;;;;;;;;;1038565;28;20025;-76
2022/07/13 02:58:44;;;;;;;4.53;1.08;;;;;;;;;;1038837;28;20100;-75
2022/07/13 02:59:14;;;;;;;2.20;1.45;;;;;;;;;;1037438;28;20069;-75
2022/07/13 02:59:45;;;;;;;9.50;2.85;;;;;;;;;;1036870;28;20041;-75
2022/07/13 03:00:15;;;;;;;2.33;1.35;;;;;;;;;;1037769;28;20113;-76
2022/07/13 03:00:46;;;;;;;11.05;1.65;;;;;;;;;;1036972;28;20062;-75
2022/07/13 03:01:16;;;;;;;9.18;1.40;;;;;;;;;;1033819;28;20021;-73
2022/07/13 03:01:47;;;;;;;4.00;1.33;;;;;;;;;;1036647;28;20112;-75
2022/07/13 03:02:18;;;;;;;10.93;1.63;;;;;;;;;;1038645;28;20418;-76
2022/07/13 03:02:48;;;;;;;5.93;1.70;;;;;;;;;;1037636;28;20146;-76
2022/07/13 03:03:19;;;;;;;6.25;1.23;;;;;;;;;;1036511;28;20469;-76
2022/07/13 03:03:49;;;;;;;3.53;1.05;;;;;;;;;;1037344;28;20021;-75